Hartsville, Pennsylvania
Current Conditions -  °F | °C
As of 10:54 PM on Saturday 24 Jan 2015 (Local Time) from KDYL Reporting Station
Overcast Overcast  
Wind Chill: 26°   Ceiling: 3500
Heat Index: 33°   Visibility: 10mi
Dew Point: 24°   Wind: 8mph
Humidity: 70%   Direction: 280°W
Pressure: 29.52"   Gusts: NA
Location:  40.2185°N, 75.0735°W
Report Text: KDYL 250354Z AUTO 28007KT 250V310 10SM BKN035 OVC070 01/M04 A2952 RMK AO2 SLP003 T00061044
Loading
Personal Weather Stations






























Interactive Weather Map New forecast layout! Learn more

10-Day Weather Forecast

Advertisements
Track Severe Weather on mobile